sensor_id;sensor_type;location;lat;lon;timestamp;temperature;humidity
1766;DHT22;880;52.452;8.656;2023-06-26T00:00:09;23.40;99.90
1766;DHT22;880;52.452;8.656;2023-06-26T00:02:37;23.40;99.90
1766;DHT22;880;52.452;8.656;2023-06-26T00:05:05;23.40;99.90
1766;DHT22;880;52.452;8.656;2023-06-26T00:07:32;23.40;99.90
1766;DHT22;880;52.452;8.656;2023-06-26T00:10:02;23.30;99.90
1766;DHT22;880;52.452;8.656;2023-06-26T00:12:30;23.30;99.90
1766;DHT22;880;52.452;8.656;2023-06-26T00:14:58;23.20;99.90
1766;DHT22;880;52.452;8.656;2023-06-26T00:17:25;23.20;99.90
1766;DHT22;880;52.452;8.656;2023-06-26T00:19:52;23.20;99.90
1766;DHT22;880;52.452;8.656;2023-06-26T00:22:21;23.10;99.90
1766;DHT22;880;52.452;8.656;2023-06-26T00:24:48;23.00;99.90
1766;DHT22;880;52.452;8.656;2023-06-26T00:27:16;23.00;99.90
1766;DHT22;880;52.452;8.656;2023-06-26T00:29:43;22.90;99.90
1766;DHT22;880;52.452;8.656;2023-06-26T00:32:10;22.90;99.90
1766;DHT22;880;52.452;8.656;2023-06-26T00:34:37;22.90;99.90
1766;DHT22;880;52.452;8.656;2023-06-26T00:37:04;22.90;99.90
1766;DHT22;880;52.452;8.656;2023-06-26T00:39:32;22.90;99.90
1766;DHT22;880;52.452;8.656;2023-06-26T00:42:00;22.80;99.90
1766;DHT22;880;52.452;8.656;2023-06-26T00:44:27;22.80;99.90
1766;DHT22;880;52.452;8.656;2023-06-26T00:46:54;22.80;99.90
1766;DHT22;880;52.452;8.656;2023-06-26T00:49:21;22.80;99.90
1766;DHT22;880;52.452;8.656;2023-06-26T00:51:49;22.80;99.90
1766;DHT22;880;52.452;8.656;2023-06-26T00:54:16;22.70;99.90
1766;DHT22;880;52.452;8.656;2023-06-26T00:56:48;22.60;99.90
1766;DHT22;880;52.452;8.656;2023-06-26T00:59:15;22.60;99.90
1766;DHT22;880;52.452;8.656;2023-06-26T01:01:42;22.60;99.90
1766;DHT22;880;52.452;8.656;2023-06-26T01:04:09;22.70;99.90
1766;DHT22;880;52.452;8.656;2023-06-26T01:06:49;22.60;99.90
1766;DHT22;880;52.452;8.656;2023-06-26T01:09:18;22.60;99.90
1766;DHT22;880;52.452;8.656;2023-06-26T01:11:46;22.50;99.90
1766;DHT22;880;52.452;8.656;2023-06-26T01:14:14;22.40;99.90
1766;DHT22;880;52.452;8.656;2023-06-26T01:16:43;22.40;99.90
1766;DHT22;880;52.452;8.656;2023-06-26T01:19:20;22.40;99.90
1766;DHT22;880;52.452;8.656;2023-06-26T01:22:27;22.40;99.90
1766;DHT22;880;52.452;8.656;2023-06-26T01:27:50;22.30;99.90
1766;DHT22;880;52.452;8.656;2023-06-26T01:30:19;22.30;99.90
1766;DHT22;880;52.452;8.656;2023-06-26T01:32:47;22.30;99.90
1766;DHT22;880;52.452;8.656;2023-06-26T01:35:15;22.30;99.90
1766;DHT22;880;52.452;8.656;2023-06-26T01:37:42;22.30;99.90
1766;DHT22;880;52.452;8.656;2023-06-26T01:40:10;22.30;99.90
1766;DHT22;880;52.452;8.656;2023-06-26T01:42:39;22.20;99.90
1766;DHT22;880;52.452;8.656;2023-06-26T01:45:17;22.20;99.90
1766;DHT22;880;52.452;8.656;2023-06-26T01:47:52;22.30;99.90
1766;DHT22;880;52.452;8.656;2023-06-26T01:50:24;22.20;99.90
1766;DHT22;880;52.452;8.656;2023-06-26T01:53:02;22.20;99.90
1766;DHT22;880;52.452;8.656;2023-06-26T01:55:50;22.20;99.90
1766;DHT22;880;52.452;8.656;2023-06-26T01:58:24;22.20;99.90
1766;DHT22;880;52.452;8.656;2023-06-26T02:00:51;22.20;99.90
1766;DHT22;880;52.452;8.656;2023-06-26T02:03:19;22.10;99.90
1766;DHT22;880;52.452;8.656;2023-06-26T02:05:47;22.10;99.90
1766;DHT22;880;52.452;8.656;2023-06-26T02:08:14;22.10;99.90
1766;DHT22;880;52.452;8.656;2023-06-26T02:10:47;22.10;99.90
1766;DHT22;880;52.452;8.656;2023-06-26T02:13:15;22.10;99.90
1766;DHT22;880;52.452;8.656;2023-06-26T02:15:42;22.10;99.90
1766;DHT22;880;52.452;8.656;2023-06-26T02:18:10;22.10;99.90
1766;DHT22;880;52.452;8.656;2023-06-26T02:20:37;22.00;99.90
1766;DHT22;880;52.452;8.656;2023-06-26T02:23:04;22.00;99.90
1766;DHT22;880;52.452;8.656;2023-06-26T02:25:31;22.00;99.90
1766;DHT22;880;52.452;8.656;2023-06-26T02:27:58;22.00;99.90
1766;DHT22;880;52.452;8.656;2023-06-26T02:30:25;22.00;99.90
1766;DHT22;880;52.452;8.656;2023-06-26T02:32:52;21.90;99.90
1766;DHT22;880;52.452;8.656;2023-06-26T02:35:20;21.90;99.90
1766;DHT22;880;52.452;8.656;2023-06-26T02:37:47;21.90;99.90
1766;DHT22;880;52.452;8.656;2023-06-26T02:40:14;21.80;99.90
1766;DHT22;880;52.452;8.656;2023-06-26T02:42:41;21.80;99.90
1766;DHT22;880;52.452;8.656;2023-06-26T02:45:09;21.70;99.90
1766;DHT22;880;52.452;8.656;2023-06-26T02:47:36;21.70;99.90
1766;DHT22;880;52.452;8.656;2023-06-26T02:50:08;21.70;99.90
1766;DHT22;880;52.452;8.656;2023-06-26T02:52:55;21.60;99.90
1766;DHT22;880;52.452;8.656;2023-06-26T02:55:22;21.60;99.90
1766;DHT22;880;52.452;8.656;2023-06-26T02:57:51;21.60;99.90
1766;DHT22;880;52.452;8.656;2023-06-26T03:00:19;21.60;99.90
1766;DHT22;880;52.452;8.656;2023-06-26T03:02:49;21.60;99.90
1766;DHT22;880;52.452;8.656;2023-06-26T03:05:18;21.60;99.90
1766;DHT22;880;52.452;8.656;2023-06-26T03:07:45;21.60;99.90
1766;DHT22;880;52.452;8.656;2023-06-26T03:10:12;21.60;99.90
1766;DHT22;880;52.452;8.656;2023-06-26T03:12:41;21.60;99.90
1766;DHT22;880;52.452;8.656;2023-06-26T03:15:08;21.60;99.90
1766;DHT22;880;52.452;8.656;2023-06-26T03:17:35;21.60;99.90
1766;DHT22;880;52.452;8.656;2023-06-26T03:20:06;21.60;99.90
1766;DHT22;880;52.452;8.656;2023-06-26T03:22:54;21.60;99.90
1766;DHT22;880;52.452;8.656;2023-06-26T03:25:22;21.60;99.90
1766;DHT22;880;52.452;8.656;2023-06-26T03:27:57;21.50;99.90
1766;DHT22;880;52.452;8.656;2023-06-26T03:30:25;21.50;99.90
1766;DHT22;880;52.452;8.656;2023-06-26T03:32:54;21.60;99.90
1766;DHT22;880;52.452;8.656;2023-06-26T03:35:22;21.60;99.90
1766;DHT22;880;52.452;8.656;2023-06-26T03:37:49;21.50;99.90
1766;DHT22;880;52.452;8.656;2023-06-26T03:40:16;21.50;99.90
1766;DHT22;880;52.452;8.656;2023-06-26T03:42:43;21.50;99.90
1766;DHT22;880;52.452;8.656;2023-06-26T03:45:11;21.50;99.90
1766;DHT22;880;52.452;8.656;2023-06-26T03:47:40;21.50;99.90
1766;DHT22;880;52.452;8.656;2023-06-26T03:50:07;21.50;99.90
1766;DHT22;880;52.452;8.656;2023-06-26T03:52:35;21.60;99.90
1766;DHT22;880;52.452;8.656;2023-06-26T03:55:02;21.50;99.90
1766;DHT22;880;52.452;8.656;2023-06-26T03:57:29;21.50;99.90
1766;DHT22;880;52.452;8.656;2023-06-26T03:59:56;21.50;99.90
1766;DHT22;880;52.452;8.656;2023-06-26T04:02:23;21.50;99.90
1766;DHT22;880;52.452;8.656;2023-06-26T04:04:50;21.50;99.90
1766;DHT22;880;52.452;8.656;2023-06-26T04:07:20;21.60;99.90
1766;DHT22;880;52.452;8.656;2023-06-26T04:09:47;21.60;99.90
1766;DHT22;880;52.452;8.656;2023-06-26T04:12:14;21.60;99.90
1766;DHT22;880;52.452;8.656;2023-06-26T04:14:41;21.60;99.90
1766;DHT22;880;52.452;8.656;2023-06-26T04:17:10;21.70;99.90
1766;DHT22;880;52.452;8.656;2023-06-26T04:19:37;21.70;99.90
1766;DHT22;880;52.452;8.656;2023-06-26T04:22:04;21.80;99.90
1766;DHT22;880;52.452;8.656;2023-06-26T04:24:31;21.80;99.90
1766;DHT22;880;52.452;8.656;2023-06-26T04:26:58;21.80;99.90
1766;DHT22;880;52.452;8.656;2023-06-26T04:29:26;21.90;99.90
1766;DHT22;880;52.452;8.656;2023-06-26T04:31:54;21.90;99.90
1766;DHT22;880;52.452;8.656;2023-06-26T04:34:26;22.00;99.90
1766;DHT22;880;52.452;8.656;2023-06-26T04:36:54;22.00;99.90
1766;DHT22;880;52.452;8.656;2023-06-26T04:39:21;22.10;99.90
1766;DHT22;880;52.452;8.656;2023-06-26T04:41:48;22.20;99.90
1766;DHT22;880;52.452;8.656;2023-06-26T04:44:15;22.20;99.90
1766;DHT22;880;52.452;8.656;2023-06-26T04:46:42;22.20;99.90
1766;DHT22;880;52.452;8.656;2023-06-26T04:49:10;22.30;99.90
1766;DHT22;880;52.452;8.656;2023-06-26T04:51:37;22.40;99.90
1766;DHT22;880;52.452;8.656;2023-06-26T04:54:07;22.50;99.90
1766;DHT22;880;52.452;8.656;2023-06-26T04:56:35;22.50;99.90
1766;DHT22;880;52.452;8.656;2023-06-26T04:59:02;22.60;99.90
1766;DHT22;880;52.452;8.656;2023-06-26T05:01:29;22.70;99.90
1766;DHT22;880;52.452;8.656;2023-06-26T05:03:59;22.80;99.90
1766;DHT22;880;52.452;8.656;2023-06-26T05:06:26;22.90;99.90
1766;DHT22;880;52.452;8.656;2023-06-26T05:08:53;22.90;99.90
1766;DHT22;880;52.452;8.656;2023-06-26T05:11:20;23.00;99.90
1766;DHT22;880;52.452;8.656;2023-06-26T05:13:47;23.00;99.90
1766;DHT22;880;52.452;8.656;2023-06-26T05:16:14;23.10;99.90
1766;DHT22;880;52.452;8.656;2023-06-26T05:18:41;23.20;99.90
1766;DHT22;880;52.452;8.656;2023-06-26T05:21:08;23.20;99.90
1766;DHT22;880;52.452;8.656;2023-06-26T05:23:35;23.40;99.90
1766;DHT22;880;52.452;8.656;2023-06-26T05:26:03;23.40;99.90
1766;DHT22;880;52.452;8.656;2023-06-26T05:28:30;23.50;99.90
1766;DHT22;880;52.452;8.656;2023-06-26T05:30:58;23.50;99.90
1766;DHT22;880;52.452;8.656;2023-06-26T05:33:26;23.50;99.90
1766;DHT22;880;52.452;8.656;2023-06-26T05:35:54;23.60;99.90
1766;DHT22;880;52.452;8.656;2023-06-26T05:38:21;23.70;99.90
1766;DHT22;880;52.452;8.656;2023-06-26T05:40:48;23.80;99.90
1766;DHT22;880;52.452;8.656;2023-06-26T05:43:16;23.80;99.90
1766;DHT22;880;52.452;8.656;2023-06-26T05:45:53;23.90;99.90
1766;DHT22;880;52.452;8.656;2023-06-26T05:48:20;24.00;99.90
1766;DHT22;880;52.452;8.656;2023-06-26T05:50:47;24.00;99.90
1766;DHT22;880;52.452;8.656;2023-06-26T05:53:15;24.10;99.90
1766;DHT22;880;52.452;8.656;2023-06-26T05:55:42;24.20;99.90
1766;DHT22;880;52.452;8.656;2023-06-26T05:58:10;24.20;99.90
1766;DHT22;880;52.452;8.656;2023-06-26T06:00:41;24.20;99.90
1766;DHT22;880;52.452;8.656;2023-06-26T06:03:09;24.30;99.90
1766;DHT22;880;52.452;8.656;2023-06-26T06:05:37;24.40;99.90
1766;DHT22;880;52.452;8.656;2023-06-26T06:08:04;24.60;99.90
1766;DHT22;880;52.452;8.656;2023-06-26T06:10:31;24.70;99.90
1766;DHT22;880;52.452;8.656;2023-06-26T06:12:58;24.70;99.90
1766;DHT22;880;52.452;8.656;2023-06-26T06:15:25;24.70;99.90
1766;DHT22;880;52.452;8.656;2023-06-26T06:17:56;24.70;99.90
1766;DHT22;880;52.452;8.656;2023-06-26T06:20:24;24.70;99.90
1766;DHT22;880;52.452;8.656;2023-06-26T06:22:51;24.80;99.90
1766;DHT22;880;52.452;8.656;2023-06-26T06:25:18;24.80;99.90
1766;DHT22;880;52.452;8.656;2023-06-26T06:27:45;24.80;99.90
1766;DHT22;880;52.452;8.656;2023-06-26T06:30:12;24.90;99.90
1766;DHT22;880;52.452;8.656;2023-06-26T06:32:39;24.90;99.90
1766;DHT22;880;52.452;8.656;2023-06-26T06:35:07;25.00;99.90
1766;DHT22;880;52.452;8.656;2023-06-26T06:37:38;25.10;99.90
1766;DHT22;880;52.452;8.656;2023-06-26T06:40:06;25.30;99.90
1766;DHT22;880;52.452;8.656;2023-06-26T06:42:33;25.30;99.90
1766;DHT22;880;52.452;8.656;2023-06-26T06:45:04;25.30;99.90
1766;DHT22;880;52.452;8.656;2023-06-26T06:47:32;25.30;99.90
1766;DHT22;880;52.452;8.656;2023-06-26T06:50:00;25.40;99.90
1766;DHT22;880;52.452;8.656;2023-06-26T06:52:38;25.50;99.90
1766;DHT22;880;52.452;8.656;2023-06-26T06:55:07;25.50;99.90
1766;DHT22;880;52.452;8.656;2023-06-26T06:57:39;25.50;99.90
1766;DHT22;880;52.452;8.656;2023-06-26T07:00:11;25.40;99.90
1766;DHT22;880;52.452;8.656;2023-06-26T07:02:40;25.60;99.90
1766;DHT22;880;52.452;8.656;2023-06-26T07:05:08;25.70;99.90
1766;DHT22;880;52.452;8.656;2023-06-26T07:07:37;25.80;99.90
1766;DHT22;880;52.452;8.656;2023-06-26T07:10:09;25.70;99.90
1766;DHT22;880;52.452;8.656;2023-06-26T07:12:38;25.60;99.90
1766;DHT22;880;52.452;8.656;2023-06-26T07:15:06;25.50;99.90
1766;DHT22;880;52.452;8.656;2023-06-26T07:17:34;25.40;99.90
1766;DHT22;880;52.452;8.656;2023-06-26T07:20:02;25.10;99.90
1766;DHT22;880;52.452;8.656;2023-06-26T07:22:37;25.20;99.90
1766;DHT22;880;52.452;8.656;2023-06-26T07:25:04;25.30;99.90
1766;DHT22;880;52.452;8.656;2023-06-26T07:27:39;25.40;99.90
1766;DHT22;880;52.452;8.656;2023-06-26T07:30:08;25.40;99.90
1766;DHT22;880;52.452;8.656;2023-06-26T07:32:36;25.40;99.90
1766;DHT22;880;52.452;8.656;2023-06-26T07:35:04;25.50;99.90
1766;DHT22;880;52.452;8.656;2023-06-26T07:37:31;25.60;99.90
1766;DHT22;880;52.452;8.656;2023-06-26T07:39:58;25.80;99.90
1766;DHT22;880;52.452;8.656;2023-06-26T07:42:25;26.00;99.90
1766;DHT22;880;52.452;8.656;2023-06-26T07:44:52;26.10;99.90
1766;DHT22;880;52.452;8.656;2023-06-26T07:47:19;26.30;99.90
1766;DHT22;880;52.452;8.656;2023-06-26T07:49:46;26.30;99.90
1766;DHT22;880;52.452;8.656;2023-06-26T07:52:16;26.10;99.90
1766;DHT22;880;52.452;8.656;2023-06-26T07:54:44;26.00;99.90
1766;DHT22;880;52.452;8.656;2023-06-26T07:57:12;26.10;99.90
1766;DHT22;880;52.452;8.656;2023-06-26T07:59:39;26.10;99.90
1766;DHT22;880;52.452;8.656;2023-06-26T08:02:06;25.80;99.90
1766;DHT22;880;52.452;8.656;2023-06-26T08:04:34;25.80;99.90
1766;DHT22;880;52.452;8.656;2023-06-26T08:07:02;25.80;99.90
1766;DHT22;880;52.452;8.656;2023-06-26T08:09:31;25.80;99.90
1766;DHT22;880;52.452;8.656;2023-06-26T08:11:58;25.80;99.90
1766;DHT22;880;52.452;8.656;2023-06-26T08:14:26;25.80;99.90
1766;DHT22;880;52.452;8.656;2023-06-26T08:16:53;25.80;99.90
1766;DHT22;880;52.452;8.656;2023-06-26T08:19:22;25.70;99.90
1766;DHT22;880;52.452;8.656;2023-06-26T08:21:49;25.50;99.90
1766;DHT22;880;52.452;8.656;2023-06-26T08:24:16;25.20;99.90
1766;DHT22;880;52.452;8.656;2023-06-26T08:26:46;25.10;99.90
1766;DHT22;880;52.452;8.656;2023-06-26T08:29:13;24.90;99.90
1766;DHT22;880;52.452;8.656;2023-06-26T08:31:42;24.80;99.90
1766;DHT22;880;52.452;8.656;2023-06-26T08:34:10;24.70;99.90
1766;DHT22;880;52.452;8.656;2023-06-26T08:36:37;24.50;99.90
1766;DHT22;880;52.452;8.656;2023-06-26T08:39:04;24.30;99.90
1766;DHT22;880;52.452;8.656;2023-06-26T08:41:35;24.10;99.90
1766;DHT22;880;52.452;8.656;2023-06-26T08:44:03;23.80;99.90
1766;DHT22;880;52.452;8.656;2023-06-26T08:46:31;23.40;99.90
1766;DHT22;880;52.452;8.656;2023-06-26T08:49:50;23.20;99.90
1766;DHT22;880;52.452;8.656;2023-06-26T08:52:02;23.10;99.90
1766;DHT22;880;52.452;8.656;2023-06-26T08:54:46;23.10;99.90
1766;DHT22;880;52.452;8.656;2023-06-26T08:57:18;23.00;99.90
1766;DHT22;880;52.452;8.656;2023-06-26T08:59:47;22.80;99.90
1766;DHT22;880;52.452;8.656;2023-06-26T09:02:14;22.80;99.90
1766;DHT22;880;52.452;8.656;2023-06-26T09:04:42;22.80;99.90
1766;DHT22;880;52.452;8.656;2023-06-26T09:07:09;22.80;99.90
1766;DHT22;880;52.452;8.656;2023-06-26T09:09:36;22.80;99.90
1766;DHT22;880;52.452;8.656;2023-06-26T09:12:03;22.90;99.90
1766;DHT22;880;52.452;8.656;2023-06-26T09:14:30;23.00;99.90
1766;DHT22;880;52.452;8.656;2023-06-26T09:16:57;23.30;99.90
1766;DHT22;880;52.452;8.656;2023-06-26T09:19:25;23.50;99.90
1766;DHT22;880;52.452;8.656;2023-06-26T09:21:52;23.60;99.90
1766;DHT22;880;52.452;8.656;2023-06-26T09:24:21;23.60;99.90
1766;DHT22;880;52.452;8.656;2023-06-26T09:26:51;23.70;99.90
1766;DHT22;880;52.452;8.656;2023-06-26T09:29:19;23.70;99.90
1766;DHT22;880;52.452;8.656;2023-06-26T09:31:46;23.80;99.90
1766;DHT22;880;52.452;8.656;2023-06-26T09:34:13;24.10;99.90
1766;DHT22;880;52.452;8.656;2023-06-26T09:36:40;24.30;99.90
1766;DHT22;880;52.452;8.656;2023-06-26T09:39:13;24.50;99.90
1766;DHT22;880;52.452;8.656;2023-06-26T09:41:44;24.70;99.90
1766;DHT22;880;52.452;8.656;2023-06-26T09:44:13;24.90;99.90
1766;DHT22;880;52.452;8.656;2023-06-26T09:46:41;25.10;99.90
1766;DHT22;880;52.452;8.656;2023-06-26T09:49:10;25.00;99.90
1766;DHT22;880;52.452;8.656;2023-06-26T09:51:40;25.30;99.90
1766;DHT22;880;52.452;8.656;2023-06-26T09:54:09;25.30;99.90
1766;DHT22;880;52.452;8.656;2023-06-26T09:56:36;25.20;99.90
1766;DHT22;880;52.452;8.656;2023-06-26T09:59:05;24.90;99.90
1766;DHT22;880;52.452;8.656;2023-06-26T10:01:32;24.70;99.90
1766;DHT22;880;52.452;8.656;2023-06-26T10:04:00;24.50;99.90
1766;DHT22;880;52.452;8.656;2023-06-26T10:06:36;24.40;99.90
1766;DHT22;880;52.452;8.656;2023-06-26T10:09:05;24.60;99.90
1766;DHT22;880;52.452;8.656;2023-06-26T10:11:41;24.80;99.90
1766;DHT22;880;52.452;8.656;2023-06-26T10:14:14;24.90;99.90
1766;DHT22;880;52.452;8.656;2023-06-26T10:16:44;24.70;99.90
1766;DHT22;880;52.452;8.656;2023-06-26T10:19:14;24.60;99.90
1766;DHT22;880;52.452;8.656;2023-06-26T10:21:45;24.60;99.90
1766;DHT22;880;52.452;8.656;2023-06-26T10:24:13;24.60;99.90
1766;DHT22;880;52.452;8.656;2023-06-26T10:26:44;24.40;99.90
1766;DHT22;880;52.452;8.656;2023-06-26T10:29:14;24.10;99.90
1766;DHT22;880;52.452;8.656;2023-06-26T10:31:48;23.90;99.90
1766;DHT22;880;52.452;8.656;2023-06-26T10:34:18;23.80;99.90
1766;DHT22;880;52.452;8.656;2023-06-26T10:36:45;23.70;99.90
1766;DHT22;880;52.452;8.656;2023-06-26T10:39:14;23.70;99.90
1766;DHT22;880;52.452;8.656;2023-06-26T10:41:41;23.80;99.90
1766;DHT22;880;52.452;8.656;2023-06-26T10:44:26;24.10;99.90
1766;DHT22;880;52.452;8.656;2023-06-26T10:46:55;24.40;99.90
1766;DHT22;880;52.452;8.656;2023-06-26T10:49:28;24.50;99.90
1766;DHT22;880;52.452;8.656;2023-06-26T10:52:00;24.40;99.90
1766;DHT22;880;52.452;8.656;2023-06-26T10:54:30;24.50;99.90
1766;DHT22;880;52.452;8.656;2023-06-26T10:56:58;24.60;99.90
1766;DHT22;880;52.452;8.656;2023-06-26T10:59:30;24.60;99.90
1766;DHT22;880;52.452;8.656;2023-06-26T11:02:03;24.70;99.90
1766;DHT22;880;52.452;8.656;2023-06-26T11:04:44;24.80;99.90
1766;DHT22;880;52.452;8.656;2023-06-26T11:07:24;25.00;99.90
1766;DHT22;880;52.452;8.656;2023-06-26T11:12:40;24.90;99.90
1766;DHT22;880;52.452;8.656;2023-06-26T11:15:14;25.00;99.90
1766;DHT22;880;52.452;8.656;2023-06-26T11:17:44;25.10;99.90
1766;DHT22;880;52.452;8.656;2023-06-26T11:20:15;25.20;99.90
1766;DHT22;880;52.452;8.656;2023-06-26T11:22:43;25.40;99.90
1766;DHT22;880;52.452;8.656;2023-06-26T11:25:10;25.40;99.90
1766;DHT22;880;52.452;8.656;2023-06-26T11:27:39;25.40;99.90
1766;DHT22;880;52.452;8.656;2023-06-26T11:30:08;25.40;99.90
1766;DHT22;880;52.452;8.656;2023-06-26T11:32:37;25.50;99.90
1766;DHT22;880;52.452;8.656;2023-06-26T11:35:05;25.60;99.90
1766;DHT22;880;52.452;8.656;2023-06-26T11:37:33;25.70;99.90
1766;DHT22;880;52.452;8.656;2023-06-26T11:40:19;25.80;99.90
1766;DHT22;880;52.452;8.656;2023-06-26T11:42:46;26.00;99.90
1766;DHT22;880;52.452;8.656;2023-06-26T11:45:15;26.40;99.90
1766;DHT22;880;52.452;8.656;2023-06-26T11:47:43;26.60;99.90
1766;DHT22;880;52.452;8.656;2023-06-26T11:50:15;26.70;99.90
1766;DHT22;880;52.452;8.656;2023-06-26T11:52:45;27.10;99.90
1766;DHT22;880;52.452;8.656;2023-06-26T11:55:20;27.10;99.90
1766;DHT22;880;52.452;8.656;2023-06-26T11:57:52;27.00;99.90
1766;DHT22;880;52.452;8.656;2023-06-26T12:00:21;26.80;99.90
1766;DHT22;880;52.452;8.656;2023-06-26T12:02:49;26.80;99.90
1766;DHT22;880;52.452;8.656;2023-06-26T12:05:17;26.40;99.90
1766;DHT22;880;52.452;8.656;2023-06-26T12:07:46;26.20;99.90
1766;DHT22;880;52.452;8.656;2023-06-26T12:10:14;26.20;99.90
1766;DHT22;880;52.452;8.656;2023-06-26T12:12:42;26.40;99.90
1766;DHT22;880;52.452;8.656;2023-06-26T12:15:13;26.50;99.90
1766;DHT22;880;52.452;8.656;2023-06-26T12:17:42;26.60;99.90
1766;DHT22;880;52.452;8.656;2023-06-26T12:20:18;26.60;99.90
1766;DHT22;880;52.452;8.656;2023-06-26T12:22:47;26.70;99.90
1766;DHT22;880;52.452;8.656;2023-06-26T12:25:20;26.70;99.90
1766;DHT22;880;52.452;8.656;2023-06-26T12:27:49;26.80;99.90
1766;DHT22;880;52.452;8.656;2023-06-26T12:30:16;27.10;99.90
1766;DHT22;880;52.452;8.656;2023-06-26T12:32:46;26.90;98.90
1766;DHT22;880;52.452;8.656;2023-06-26T12:35:15;26.60;95.30
1766;DHT22;880;52.452;8.656;2023-06-26T12:37:43;26.60;94.80
1766;DHT22;880;52.452;8.656;2023-06-26T12:40:18;26.60;94.20
1766;DHT22;880;52.452;8.656;2023-06-26T12:42:45;26.60;95.60
1766;DHT22;880;52.452;8.656;2023-06-26T12:45:13;26.50;98.00
1766;DHT22;880;52.452;8.656;2023-06-26T12:48:13;26.50;97.30
1766;DHT22;880;52.452;8.656;2023-06-26T12:50:46;26.20;98.20
1766;DHT22;880;52.452;8.656;2023-06-26T12:53:15;26.00;99.40
1766;DHT22;880;52.452;8.656;2023-06-26T12:55:42;26.00;99.90
1766;DHT22;880;52.452;8.656;2023-06-26T12:58:09;26.00;99.90
1766;DHT22;880;52.452;8.656;2023-06-26T13:00:36;26.10;99.90
1766;DHT22;880;52.452;8.656;2023-06-26T13:03:04;26.40;99.90
1766;DHT22;880;52.452;8.656;2023-06-26T13:05:33;26.70;99.90
1766;DHT22;880;52.452;8.656;2023-06-26T13:08:00;26.90;99.90
1766;DHT22;880;52.452;8.656;2023-06-26T13:10:30;27.20;99.90
1766;DHT22;880;52.452;8.656;2023-06-26T13:12:57;27.00;99.90
1766;DHT22;880;52.452;8.656;2023-06-26T13:15:24;26.70;99.90
1766;DHT22;880;52.452;8.656;2023-06-26T13:17:51;26.80;99.90
1766;DHT22;880;52.452;8.656;2023-06-26T13:20:18;27.00;99.90
1766;DHT22;880;52.452;8.656;2023-06-26T13:22:45;27.00;99.90
1766;DHT22;880;52.452;8.656;2023-06-26T13:25:13;26.60;99.90
1766;DHT22;880;52.452;8.656;2023-06-26T13:27:40;26.40;99.90
1766;DHT22;880;52.452;8.656;2023-06-26T13:30:07;26.30;99.90
1766;DHT22;880;52.452;8.656;2023-06-26T13:32:35;26.10;99.90
1766;DHT22;880;52.452;8.656;2023-06-26T13:35:02;25.50;99.90
1766;DHT22;880;52.452;8.656;2023-06-26T13:37:30;25.30;99.90
1766;DHT22;880;52.452;8.656;2023-06-26T13:39:57;25.20;99.90
1766;DHT22;880;52.452;8.656;2023-06-26T13:42:26;24.90;99.90
1766;DHT22;880;52.452;8.656;2023-06-26T13:44:54;24.80;99.90
1766;DHT22;880;52.452;8.656;2023-06-26T13:47:29;25.00;99.90
1766;DHT22;880;52.452;8.656;2023-06-26T13:49:57;25.50;99.90
1766;DHT22;880;52.452;8.656;2023-06-26T13:52:24;25.80;99.90
1766;DHT22;880;52.452;8.656;2023-06-26T13:54:51;25.60;99.90
1766;DHT22;880;52.452;8.656;2023-06-26T13:57:18;25.70;99.90
1766;DHT22;880;52.452;8.656;2023-06-26T13:59:49;25.70;99.90
1766;DHT22;880;52.452;8.656;2023-06-26T14:02:16;25.80;99.40
1766;DHT22;880;52.452;8.656;2023-06-26T14:04:44;25.90;99.90
1766;DHT22;880;52.452;8.656;2023-06-26T14:07:11;26.00;99.80
1766;DHT22;880;52.452;8.656;2023-06-26T14:09:38;25.90;99.00
1766;DHT22;880;52.452;8.656;2023-06-26T14:12:06;25.80;99.40
1766;DHT22;880;52.452;8.656;2023-06-26T14:14:34;25.80;98.90
1766;DHT22;880;52.452;8.656;2023-06-26T14:17:00;25.70;99.00
1766;DHT22;880;52.452;8.656;2023-06-26T14:19:28;25.60;99.20
1766;DHT22;880;52.452;8.656;2023-06-26T14:21:55;25.50;99.40
1766;DHT22;880;52.452;8.656;2023-06-26T14:24:22;25.60;99.90
1766;DHT22;880;52.452;8.656;2023-06-26T14:26:49;25.70;99.70
1766;DHT22;880;52.452;8.656;2023-06-26T14:29:16;25.70;99.00
1766;DHT22;880;52.452;8.656;2023-06-26T14:31:44;25.80;98.00
1766;DHT22;880;52.452;8.656;2023-06-26T14:34:12;25.70;98.50
1766;DHT22;880;52.452;8.656;2023-06-26T14:36:39;25.80;96.10
1766;DHT22;880;52.452;8.656;2023-06-26T14:39:06;25.60;96.40
1766;DHT22;880;52.452;8.656;2023-06-26T14:41:34;25.60;95.80
1766;DHT22;880;52.452;8.656;2023-06-26T14:44:02;25.40;96.20
1766;DHT22;880;52.452;8.656;2023-06-26T14:46:31;25.40;97.00
1766;DHT22;880;52.452;8.656;2023-06-26T14:48:59;25.30;96.00
1766;DHT22;880;52.452;8.656;2023-06-26T14:51:26;25.10;98.20
1766;DHT22;880;52.452;8.656;2023-06-26T14:53:53;24.90;97.20
1766;DHT22;880;52.452;8.656;2023-06-26T14:56:20;24.70;97.10
1766;DHT22;880;52.452;8.656;2023-06-26T14:58:47;24.40;97.30
1766;DHT22;880;52.452;8.656;2023-06-26T15:01:14;24.60;98.10
1766;DHT22;880;52.452;8.656;2023-06-26T15:03:49;24.70;98.60
1766;DHT22;880;52.452;8.656;2023-06-26T15:06:17;24.80;98.50
1766;DHT22;880;52.452;8.656;2023-06-26T15:08:44;25.20;97.50
1766;DHT22;880;52.452;8.656;2023-06-26T15:11:11;25.10;96.30
1766;DHT22;880;52.452;8.656;2023-06-26T15:13:39;25.00;96.30
1766;DHT22;880;52.452;8.656;2023-06-26T15:16:07;24.80;96.70
1766;DHT22;880;52.452;8.656;2023-06-26T15:18:34;24.70;96.60
1766;DHT22;880;52.452;8.656;2023-06-26T15:21:01;24.60;96.90
1766;DHT22;880;52.452;8.656;2023-06-26T15:23:33;24.60;96.50
1766;DHT22;880;52.452;8.656;2023-06-26T15:26:00;24.60;96.20
1766;DHT22;880;52.452;8.656;2023-06-26T15:28:27;24.50;95.10
1766;DHT22;880;52.452;8.656;2023-06-26T15:30:54;24.20;94.90
1766;DHT22;880;52.452;8.656;2023-06-26T15:33:21;24.00;95.50
1766;DHT22;880;52.452;8.656;2023-06-26T15:35:48;24.00;96.30
1766;DHT22;880;52.452;8.656;2023-06-26T15:38:15;24.20;96.20
1766;DHT22;880;52.452;8.656;2023-06-26T15:40:43;24.10;96.30
1766;DHT22;880;52.452;8.656;2023-06-26T15:43:10;24.10;96.70
1766;DHT22;880;52.452;8.656;2023-06-26T15:45:37;24.00;96.90
1766;DHT22;880;52.452;8.656;2023-06-26T15:48:05;24.00;96.40
1766;DHT22;880;52.452;8.656;2023-06-26T15:50:32;23.90;96.90
1766;DHT22;880;52.452;8.656;2023-06-26T15:53:02;23.90;98.00
1766;DHT22;880;52.452;8.656;2023-06-26T15:55:30;23.90;98.30
1766;DHT22;880;52.452;8.656;2023-06-26T15:57:57;23.90;98.30
1766;DHT22;880;52.452;8.656;2023-06-26T16:00:24;23.70;98.70
1766;DHT22;880;52.452;8.656;2023-06-26T16:02:51;23.60;99.50
1766;DHT22;880;52.452;8.656;2023-06-26T16:05:18;23.50;99.50
1766;DHT22;880;52.452;8.656;2023-06-26T16:07:45;23.50;99.90
1766;DHT22;880;52.452;8.656;2023-06-26T16:10:24;23.50;99.90
1766;DHT22;880;52.452;8.656;2023-06-26T16:12:52;23.30;98.20
1766;DHT22;880;52.452;8.656;2023-06-26T16:15:19;23.20;96.60
1766;DHT22;880;52.452;8.656;2023-06-26T16:17:47;23.20;97.40
1766;DHT22;880;52.452;8.656;2023-06-26T16:20:15;23.20;97.20
1766;DHT22;880;52.452;8.656;2023-06-26T16:22:42;23.50;96.40
1766;DHT22;880;52.452;8.656;2023-06-26T16:25:10;23.50;95.70
1766;DHT22;880;52.452;8.656;2023-06-26T16:27:37;23.50;96.50
1766;DHT22;880;52.452;8.656;2023-06-26T16:30:04;23.50;96.00
1766;DHT22;880;52.452;8.656;2023-06-26T16:32:32;23.40;96.10